Death Valley, California
Current Conditions -  °F | °C
As of 8:52 AM on Thursday 23 Oct 2014 (Local Time) from KDRA Reporting Station
Clear Clear  
Wind Chill: 60°   Ceiling: Unl
Heat Index: 60°   Visibility: 10mi
Dew Point: 21°   Wind: 5mph
Humidity: 22%   Direction: 150°SSE
Pressure: 30.13"   Gusts: NA
Location:  36.46°N, 116.87°W
Report Text: KDRA 231552Z AUTO 15004KT 10SM CLR 16/M06 A3013 RMK AO2 SLP176 T01561061
Loading
Personal Weather Stations






























Interactive Weather Map
Tropical Storm Tracking
New forecast layout! Learn more

10-Day Weather Forecast

Advertisements
Track Severe Weather on mobile